Time;durP1;ratioP1;P1;durP2;ratioP2;P2;SDS_P1;SDS_P2;PMS_P1;PMS_P2;Temp;Humidity;BMP_temperature;BMP_pressure;BME280_temperature;BME280_humidity;BME280_pressure;Samples;Min_cycle;Max_cycle;Signal;HPM_P1;HPM_P2
2024/01/29 00:01:47;;;;;;;24.23;13.90;;;5.00;99.90;;;;;;4995256;28;20534;-68
2024/01/29 00:04:12;;;;;;;21.33;13.47;;;5.00;99.90;;;;;;4994045;28;20988;-67
2024/01/29 00:06:38;;;;;;;18.23;14.00;;;5.00;99.90;;;;;;4998551;28;20258;-67
2024/01/29 00:09:03;;;;;;;18.90;13.17;;;5.00;99.90;;;;;;4994250;28;20200;-67
2024/01/29 00:11:29;;;;;;;17.30;13.10;;;5.00;99.90;;;;;;5000431;28;20220;-66
2024/01/29 00:13:55;;;;;;;18.33;13.73;;;4.90;99.90;;;;;;5002085;28;20235;-67
2024/01/29 00:16:20;;;;;;;17.30;13.90;;;4.90;99.90;;;;;;5002480;28;20185;-67
2024/01/29 00:18:46;;;;;;;15.97;11.20;;;4.90;99.90;;;;;;4995625;28;20220;-67
2024/01/29 00:21:12;;;;;;;13.60;11.17;;;4.90;99.90;;;;;;4991767;28;20181;-67
2024/01/29 00:23:38;;;;;;;15.87;11.97;;;4.90;99.90;;;;;;5001083;28;20664;-67
2024/01/29 00:26:03;;;;;;;13.70;10.40;;;4.90;99.90;;;;;;4999257;28;20486;-67
2024/01/29 00:28:29;;;;;;;15.33;11.07;;;4.90;99.90;;;;;;4997903;28;20182;-67
2024/01/29 00:30:55;;;;;;;15.20;10.80;;;4.90;99.90;;;;;;4991741;28;20200;-67
2024/01/29 00:33:20;;;;;;;16.50;10.93;;;4.90;99.90;;;;;;4997804;28;20218;-67
2024/01/29 00:35:46;;;;;;;11.60;9.27;;;4.90;99.90;;;;;;4998426;28;20703;-67
2024/01/29 00:38:11;;;;;;;14.53;11.03;;;4.90;99.90;;;;;;4991937;28;20562;-67
2024/01/29 00:40:37;;;;;;;16.80;10.53;;;4.90;99.90;;;;;;4992281;28;20219;-67
2024/01/29 00:43:03;;;;;;;20.80;11.00;;;4.90;99.90;;;;;;4999809;28;20189;-67
2024/01/29 00:45:29;;;;;;;12.83;9.77;;;4.90;99.90;;;;;;4992239;28;20190;-67
2024/01/29 00:47:55;;;;;;;18.17;11.13;;;4.90;99.90;;;;;;4998206;28;20446;-67
2024/01/29 00:50:20;;;;;;;18.07;11.40;;;4.90;99.90;;;;;;4991289;28;20519;-67
2024/01/29 00:52:46;;;;;;;15.00;10.97;;;4.90;99.90;;;;;;4996683;28;20867;-67
2024/01/29 00:55:12;;;;;;;14.93;11.00;;;4.90;99.90;;;;;;4991842;28;20209;-67
2024/01/29 00:57:38;;;;;;;12.33;10.07;;;4.80;99.90;;;;;;4998659;28;20184;-67
2024/01/29 01:00:06;;;;;;;14.80;10.10;;;4.90;99.90;;;;;;4994989;28;20436;-67
2024/01/29 01:02:32;;;;;;;13.57;9.47;;;4.90;99.90;;;;;;4997649;28;20510;-67
2024/01/29 01:04:57;;;;;;;14.73;10.17;;;4.90;99.90;;;;;;4994174;28;20568;-67
2024/01/29 01:07:23;;;;;;;13.10;9.80;;;4.90;99.90;;;;;;4996591;28;20196;-67
2024/01/29 01:09:49;;;;;;;15.40;10.70;;;4.90;99.90;;;;;;4995203;28;20694;-66
2024/01/29 01:12:14;;;;;;;16.23;11.43;;;4.90;99.90;;;;;;4994273;28;20217;-65
2024/01/29 01:14:40;;;;;;;16.43;10.40;;;4.90;99.90;;;;;;4998210;28;20352;-66
2024/01/29 01:17:05;;;;;;;15.20;11.33;;;4.90;99.90;;;;;;4999140;28;20282;-66
2024/01/29 01:19:31;;;;;;;15.67;11.60;;;4.90;99.90;;;;;;4997555;28;20194;-66
2024/01/29 01:21:56;;;;;;;14.43;12.27;;;4.90;99.90;;;;;;4996394;28;20190;-66
2024/01/29 01:24:22;;;;;;;15.13;11.70;;;4.90;99.90;;;;;;5000337;28;20206;-66
2024/01/29 01:26:47;;;;;;;14.77;9.90;;;4.90;99.90;;;;;;4996411;28;20243;-66
2024/01/29 01:29:13;;;;;;;16.63;11.30;;;4.80;99.90;;;;;;5001417;28;20242;-67
2024/01/29 01:31:39;;;;;;;20.10;12.20;;;4.90;99.90;;;;;;5000555;28;20236;-66
2024/01/29 01:34:04;;;;;;;15.23;11.70;;;4.90;99.90;;;;;;5001934;28;20472;-67
2024/01/29 01:36:30;;;;;;;16.27;11.13;;;4.90;99.90;;;;;;4994978;28;20186;-66
2024/01/29 01:38:55;;;;;;;15.33;10.93;;;4.90;99.90;;;;;;5000731;28;20673;-67
2024/01/29 01:41:21;;;;;;;20.43;10.70;;;4.90;99.90;;;;;;4995930;28;20220;-67
2024/01/29 01:43:46;;;;;;;12.57;9.67;;;4.80;99.90;;;;;;5001170;28;20209;-67
2024/01/29 01:46:12;;;;;;;13.87;10.73;;;4.90;99.90;;;;;;4998762;28;20328;-67
2024/01/29 01:48:37;;;;;;;16.77;10.77;;;4.80;99.90;;;;;;5001965;28;20276;-67
2024/01/29 01:51:04;;;;;;;12.70;9.80;;;4.80;99.90;;;;;;4991996;28;20189;-67
2024/01/29 01:53:32;;;;;;;16.40;11.00;;;4.80;99.90;;;;;;4999331;28;20217;-67
2024/01/29 01:55:59;;;;;;;13.30;10.53;;;4.80;99.90;;;;;;4994778;28;20545;-67
2024/01/29 01:58:25;;;;;;;15.67;11.33;;;4.80;99.90;;;;;;4994573;28;20837;-68
2024/01/29 02:00:51;;;;;;;15.83;10.70;;;4.80;99.90;;;;;;4993860;28;20427;-67
2024/01/29 02:03:17;;;;;;;13.20;9.70;;;4.70;99.90;;;;;;4994937;28;20957;-67
2024/01/29 02:05:42;;;;;;;14.83;10.30;;;4.70;99.90;;;;;;4991713;28;20862;-67
2024/01/29 02:08:08;;;;;;;13.43;10.23;;;4.70;99.90;;;;;;4994762;28;20433;-67
2024/01/29 02:10:35;;;;;;;13.90;9.80;;;4.70;99.90;;;;;;4992940;28;20289;-67
2024/01/29 02:13:00;;;;;;;13.37;9.77;;;4.70;99.90;;;;;;4993711;28;20283;-68
2024/01/29 02:15:26;;;;;;;17.67;10.70;;;4.70;99.90;;;;;;4992373;28;20519;-67
2024/01/29 02:17:52;;;;;;;15.13;11.30;;;4.70;99.90;;;;;;4996124;28;20692;-67
2024/01/29 02:20:19;;;;;;;14.30;10.37;;;4.70;99.90;;;;;;4997149;28;20272;-67
2024/01/29 02:22:45;;;;;;;17.80;10.97;;;4.60;99.90;;;;;;4996577;28;20185;-67
2024/01/29 02:25:12;;;;;;;15.60;10.33;;;4.60;99.90;;;;;;5001119;28;20451;-67
2024/01/29 02:27:37;;;;;;;14.60;10.57;;;4.60;99.90;;;;;;4994914;28;20443;-68
2024/01/29 02:30:04;;;;;;;12.80;9.80;;;4.60;99.90;;;;;;4983064;28;20471;-67
2024/01/29 02:32:30;;;;;;;13.27;9.07;;;4.60;99.90;;;;;;4996212;28;20216;-67
2024/01/29 02:34:55;;;;;;;16.20;10.53;;;4.60;99.90;;;;;;4997332;28;20519;-67
2024/01/29 02:37:21;;;;;;;12.23;9.60;;;4.60;99.90;;;;;;4997693;28;20406;-67
2024/01/29 02:39:50;;;;;;;14.33;11.17;;;4.60;99.90;;;;;;4994877;28;20189;-67
2024/01/29 02:42:18;;;;;;;13.13;10.20;;;4.60;99.90;;;;;;4990650;28;20196;-67
2024/01/29 02:44:45;;;;;;;15.00;10.70;;;4.60;99.90;;;;;;4998218;28;20464;-67
2024/01/29 02:47:11;;;;;;;14.37;10.53;;;4.60;99.90;;;;;;4995086;28;20480;-67
2024/01/29 02:49:36;;;;;;;14.10;10.90;;;4.60;99.90;;;;;;4994318;28;20452;-67
2024/01/29 02:52:04;;;;;;;12.30;10.00;;;4.60;99.90;;;;;;4998368;28;20644;-67
2024/01/29 02:54:29;;;;;;;12.23;9.00;;;4.60;99.90;;;;;;4995259;28;20253;-67
2024/01/29 02:56:55;;;;;;;15.10;11.30;;;4.60;99.90;;;;;;4997545;28;20432;-67
2024/01/29 02:59:20;;;;;;;17.37;12.20;;;4.60;99.90;;;;;;4999387;28;20177;-67
2024/01/29 03:01:46;;;;;;;14.37;10.73;;;4.60;99.90;;;;;;4997071;28;20612;-67
2024/01/29 03:04:12;;;;;;;14.10;11.20;;;4.60;99.90;;;;;;4993111;28;20215;-67
2024/01/29 03:06:37;;;;;;;14.30;11.27;;;4.60;99.90;;;;;;4998056;28;20240;-67
2024/01/29 03:09:03;;;;;;;14.93;11.60;;;4.60;99.90;;;;;;4995727;28;20198;-66
2024/01/29 03:11:28;;;;;;;14.30;10.40;;;4.60;99.90;;;;;;4998360;28;20185;-67
2024/01/29 03:13:54;;;;;;;16.97;12.20;;;4.60;99.90;;;;;;4992744;28;21153;-68
2024/01/29 03:16:20;;;;;;;15.40;11.30;;;4.60;99.90;;;;;;4998270;28;20181;-67
2024/01/29 03:18:45;;;;;;;16.60;12.00;;;4.60;99.90;;;;;;4995476;28;20671;-68
2024/01/29 03:21:13;;;;;;;13.60;10.93;;;4.60;99.90;;;;;;4996202;28;20194;-67
2024/01/29 03:23:38;;;;;;;15.53;11.80;;;4.60;99.90;;;;;;4994386;28;20208;-67
2024/01/29 03:26:04;;;;;;;15.00;12.23;;;4.60;99.90;;;;;;4998423;28;20424;-67
2024/01/29 03:28:29;;;;;;;14.20;10.73;;;4.60;99.90;;;;;;4993925;28;20559;-67
2024/01/29 03:30:55;;;;;;;17.20;12.90;;;4.60;99.90;;;;;;4991667;28;20198;-67
2024/01/29 03:33:20;;;;;;;17.53;12.60;;;4.60;99.90;;;;;;4990924;28;20727;-67
2024/01/29 03:35:46;;;;;;;14.23;12.20;;;4.60;99.90;;;;;;4995681;28;20296;-66
2024/01/29 03:38:12;;;;;;;13.37;10.33;;;4.60;99.90;;;;;;4995880;28;20192;-66
2024/01/29 03:40:37;;;;;;;15.33;11.90;;;4.60;99.90;;;;;;4996790;28;20193;-67
2024/01/29 03:43:03;;;;;;;13.20;11.10;;;4.50;99.90;;;;;;4994945;28;20188;-67
2024/01/29 03:45:28;;;;;;;14.40;10.50;;;4.50;99.90;;;;;;4998132;28;20193;-67
2024/01/29 03:47:54;;;;;;;13.87;10.67;;;4.50;99.90;;;;;;4998231;28;20287;-67
2024/01/29 03:50:19;;;;;;;14.57;10.83;;;4.50;99.90;;;;;;4996543;28;20267;-67
2024/01/29 03:52:47;;;;;;;13.73;11.20;;;4.50;99.90;;;;;;4993274;28;20563;-67
2024/01/29 03:55:13;;;;;;;17.53;11.33;;;4.40;99.90;;;;;;4993636;28;20198;-67
2024/01/29 03:57:38;;;;;;;16.43;11.53;;;4.50;99.90;;;;;;4995264;28;20451;-66
2024/01/29 04:00:07;;;;;;;15.10;10.83;;;4.40;99.90;;;;;;4997599;28;20185;-67
2024/01/29 04:02:32;;;;;;;12.90;9.77;;;4.40;99.90;;;;;;4994957;28;20189;-66
2024/01/29 04:04:58;;;;;;;12.87;9.70;;;4.40;99.90;;;;;;4996396;28;20471;-66
2024/01/29 04:07:23;;;;;;;14.00;9.50;;;4.40;99.90;;;;;;4994302;28;20197;-67
2024/01/29 04:09:49;;;;;;;12.87;9.63;;;4.40;99.90;;;;;;4996896;28;20201;-67
2024/01/29 04:12:17;;;;;;;14.97;9.90;;;4.40;99.90;;;;;;4994590;28;20221;-66
2024/01/29 04:14:43;;;;;;;14.00;10.70;;;4.40;99.90;;;;;;4999961;28;20209;-67
2024/01/29 04:17:09;;;;;;;13.80;9.77;;;4.30;99.90;;;;;;4998235;28;20423;-67
2024/01/29 04:19:34;;;;;;;16.10;9.87;;;4.30;99.90;;;;;;4993773;28;20656;-67
2024/01/29 04:22:03;;;;;;;15.80;10.90;;;4.30;99.90;;;;;;4996703;28;20622;-67
2024/01/29 04:24:28;;;;;;;13.60;10.47;;;4.20;99.90;;;;;;4998400;28;20224;-66
2024/01/29 04:26:55;;;;;;;16.47;9.60;;;4.20;99.90;;;;;;4993281;28;20436;-67
2024/01/29 04:29:20;;;;;;;13.30;9.10;;;4.20;99.90;;;;;;4998192;28;20985;-68
2024/01/29 04:31:46;;;;;;;12.70;9.00;;;4.20;99.90;;;;;;4993440;28;20464;-67
2024/01/29 04:34:12;;;;;;;12.47;9.70;;;4.20;99.90;;;;;;4993765;28;20210;-67
2024/01/29 04:36:37;;;;;;;11.77;8.47;;;4.20;99.90;;;;;;4989740;28;20592;-67
2024/01/29 04:39:03;;;;;;;12.70;9.37;;;4.10;99.90;;;;;;5002398;28;20182;-66
2024/01/29 04:41:29;;;;;;;12.97;9.20;;;4.10;99.90;;;;;;4998620;28;20652;-67
2024/01/29 04:43:54;;;;;;;13.30;9.67;;;4.10;99.90;;;;;;4999294;28;20449;-67
2024/01/29 04:46:20;;;;;;;11.73;9.33;;;4.10;99.90;;;;;;4996789;28;20193;-67
2024/01/29 04:48:45;;;;;;;12.53;9.37;;;4.10;99.90;;;;;;5001165;28;20186;-67
2024/01/29 04:51:11;;;;;;;11.47;8.60;;;4.10;99.90;;;;;;4997067;28;20182;-67
2024/01/29 04:53:38;;;;;;;10.87;8.27;;;4.10;99.90;;;;;;4998203;28;20731;-67
2024/01/29 04:56:04;;;;;;;12.50;7.83;;;4.10;99.90;;;;;;4996800;28;20189;-68
2024/01/29 04:58:30;;;;;;;11.40;8.30;;;4.10;99.90;;;;;;4995017;28;20957;-67
2024/01/29 05:00:55;;;;;;;13.90;8.50;;;4.10;99.90;;;;;;4999413;28;20189;-67
2024/01/29 05:03:21;;;;;;;10.37;8.10;;;4.10;99.90;;;;;;5001273;28;20550;-67
2024/01/29 05:05:47;;;;;;;15.00;8.83;;;4.00;99.90;;;;;;5002891;28;20208;-67
2024/01/29 05:08:15;;;;;;;13.93;8.27;;;4.10;99.90;;;;;;4996701;28;20190;-67
2024/01/29 05:10:41;;;;;;;12.80;8.67;;;4.10;99.90;;;;;;4999366;28;20193;-68
2024/01/29 05:13:08;;;;;;;16.37;8.70;;;4.00;99.90;;;;;;4999534;28;20472;-68
2024/01/29 05:15:34;;;;;;;14.87;9.30;;;4.00;99.90;;;;;;5011341;28;20522;-68
2024/01/29 05:18:01;;;;;;;11.53;8.00;;;4.00;99.90;;;;;;4997034;28;20436;-68
2024/01/29 05:20:26;;;;;;;11.37;8.10;;;4.00;99.90;;;;;;4996627;28;20416;-68
2024/01/29 05:22:52;;;;;;;11.00;8.00;;;4.00;99.90;;;;;;4997362;28;20856;-68
2024/01/29 05:25:17;;;;;;;11.67;6.90;;;4.00;99.90;;;;;;5003361;28;20204;-68
2024/01/29 05:27:43;;;;;;;11.53;8.27;;;4.00;99.90;;;;;;4995821;28;20197;-68
2024/01/29 05:30:09;;;;;;;10.17;7.10;;;4.00;99.90;;;;;;4996084;28;20224;-68
2024/01/29 05:32:35;;;;;;;10.13;7.47;;;4.00;99.90;;;;;;4995117;28;20307;-68
2024/01/29 05:35:01;;;;;;;10.57;7.20;;;4.00;99.90;;;;;;4991917;28;20817;-68
2024/01/29 05:37:27;;;;;;;11.10;7.50;;;4.00;99.90;;;;;;4997494;28;20185;-68
2024/01/29 05:39:52;;;;;;;11.67;8.10;;;4.10;99.90;;;;;;4990643;28;20490;-68
2024/01/29 05:42:18;;;;;;;11.63;8.67;;;4.10;99.90;;;;;;4991160;28;20268;-68
2024/01/29 05:44:43;;;;;;;9.70;7.90;;;4.10;99.90;;;;;;4996374;28;20210;-68
2024/01/29 05:47:09;;;;;;;12.97;8.97;;;4.10;99.90;;;;;;4999468;28;20620;-68
2024/01/29 05:49:34;;;;;;;13.43;8.50;;;4.10;99.90;;;;;;4997191;28;20611;-68
2024/01/29 05:52:00;;;;;;;10.10;7.87;;;4.00;99.90;;;;;;4998307;28;20216;-67
2024/01/29 05:54:25;;;;;;;10.60;8.30;;;4.00;99.90;;;;;;5000411;28;20209;-67
2024/01/29 05:56:51;;;;;;;12.00;8.90;;;4.00;99.90;;;;;;4995132;28;20204;-67
2024/01/29 05:59:17;;;;;;;9.40;8.10;;;4.00;99.90;;;;;;4998222;28;20174;-67
2024/01/29 06:01:43;;;;;;;10.20;7.80;;;4.00;99.90;;;;;;4998170;28;20263;-67
2024/01/29 06:04:08;;;;;;;9.50;6.60;;;3.90;99.90;;;;;;4997596;28;20451;-67
2024/01/29 06:06:37;;;;;;;8.33;6.70;;;3.90;99.90;;;;;;4996039;28;20737;-68
2024/01/29 06:09:03;;;;;;;11.60;7.07;;;3.90;99.90;;;;;;4996746;28;20700;-68
2024/01/29 06:11:28;;;;;;;8.97;6.90;;;3.80;99.90;;;;;;4997479;28;20423;-66
2024/01/29 06:13:54;;;;;;;7.87;5.97;;;3.70;99.90;;;;;;4997398;28;21378;-67
2024/01/29 06:16:21;;;;;;;8.23;5.80;;;3.70;99.90;;;;;;4999156;28;20260;-67
2024/01/29 06:18:47;;;;;;;11.13;6.97;;;3.60;99.90;;;;;;5003364;28;20185;-68
2024/01/29 06:21:12;;;;;;;13.63;7.93;;;3.60;99.90;;;;;;4999016;28;20435;-66
2024/01/29 06:23:38;;;;;;;10.10;6.67;;;3.60;99.90;;;;;;5000449;28;20262;-67
2024/01/29 06:26:03;;;;;;;12.23;7.40;;;3.60;99.90;;;;;;5006051;28;20252;-66
2024/01/29 06:28:29;;;;;;;9.20;6.30;;;3.60;99.90;;;;;;4993893;28;20767;-67
2024/01/29 06:30:55;;;;;;;7.60;6.80;;;3.60;99.90;;;;;;4993840;28;20189;-66
2024/01/29 06:33:21;;;;;;;8.97;6.80;;;3.60;99.90;;;;;;5000185;28;20468;-65
2024/01/29 06:35:46;;;;;;;11.63;6.77;;;3.60;99.90;;;;;;5000675;28;20181;-66
2024/01/29 06:38:12;;;;;;;8.77;5.83;;;3.60;99.90;;;;;;5022756;28;20264;-66
2024/01/29 06:40:38;;;;;;;7.87;5.80;;;3.60;99.90;;;;;;5004117;28;20176;-67
2024/01/29 06:43:03;;;;;;;10.67;6.50;;;3.60;99.90;;;;;;4995738;28;20662;-67
2024/01/29 06:45:30;;;;;;;8.90;6.20;;;3.70;99.90;;;;;;5000917;28;20182;-67
2024/01/29 06:47:57;;;;;;;8.13;6.70;;;3.70;99.90;;;;;;5003520;28;20293;-68
2024/01/29 06:50:23;;;;;;;8.53;6.10;;;3.70;99.90;;;;;;5006921;28;20438;-68
2024/01/29 06:52:49;;;;;;;9.10;5.80;;;3.70;99.90;;;;;;5004248;28;20468;-68
2024/01/29 06:55:15;;;;;;;10.97;6.10;;;3.70;99.90;;;;;;5004501;28;20888;-68
2024/01/29 06:57:41;;;;;;;7.53;5.97;;;3.70;99.90;;;;;;5000328;28;20181;-68
2024/01/29 07:00:07;;;;;;;7.20;5.43;;;3.80;99.90;;;;;;4999686;28;20522;-67
2024/01/29 07:02:34;;;;;;;10.90;6.87;;;3.80;99.90;;;;;;5000759;28;20842;-67
2024/01/29 07:05:00;;;;;;;7.27;5.60;;;3.80;99.90;;;;;;5003485;28;20497;-67
2024/01/29 07:07:25;;;;;;;7.60;5.17;;;3.80;99.90;;;;;;5000818;28;21093;-67
2024/01/29 07:09:54;;;;;;;12.40;6.40;;;3.80;99.90;;;;;;5003198;28;20188;-67
2024/01/29 07:12:20;;;;;;;10.53;6.30;;;3.90;99.90;;;;;;5000164;28;20755;-67
2024/01/29 07:14:45;;;;;;;13.80;7.10;;;3.90;99.90;;;;;;5006542;28;20439;-67
2024/01/29 07:17:11;;;;;;;9.03;6.80;;;3.90;99.90;;;;;;5003595;28;20178;-67
2024/01/29 07:19:37;;;;;;;12.07;7.67;;;4.00;99.90;;;;;;5001494;28;20694;-68
2024/01/29 07:22:14;;;;;;;7.80;6.20;;;4.00;99.90;;;;;;4997551;28;20207;-68
2024/01/29 07:24:40;;;;;;;7.77;6.70;;;4.00;99.90;;;;;;4993893;28;20209;-67
2024/01/29 07:27:06;;;;;;;10.30;7.40;;;4.00;99.90;;;;;;5002995;28;20412;-67
2024/01/29 07:29:31;;;;;;;9.13;6.50;;;4.00;99.90;;;;;;4994415;28;20495;-67
2024/01/29 07:31:58;;;;;;;8.83;6.33;;;4.10;99.90;;;;;;4994484;28;20299;-67
2024/01/29 07:34:24;;;;;;;9.13;6.40;;;4.10;99.90;;;;;;4997539;28;20197;-67
2024/01/29 07:36:49;;;;;;;12.80;6.80;;;4.10;99.90;;;;;;4997753;28;20431;-68
2024/01/29 07:39:15;;;;;;;8.70;6.10;;;4.10;99.90;;;;;;5002386;28;20527;-68
2024/01/29 07:41:41;;;;;;;10.50;6.17;;;4.20;99.90;;;;;;4997076;28;20239;-68
2024/01/29 07:44:07;;;;;;;13.47;7.10;;;4.20;99.90;;;;;;4992472;28;20654;-67
2024/01/29 07:46:33;;;;;;;9.60;6.27;;;4.30;99.90;;;;;;4991243;28;21208;-68
2024/01/29 07:49:03;;;;;;;9.60;6.63;;;4.30;99.90;;;;;;4991738;28;20268;-68
2024/01/29 07:51:29;;;;;;;8.47;6.87;;;4.40;99.90;;;;;;4992122;28;20256;-66
2024/01/29 07:53:55;;;;;;;12.43;7.80;;;4.40;99.90;;;;;;4999388;28;20526;-68
2024/01/29 07:56:21;;;;;;;9.50;6.53;;;4.40;99.90;;;;;;4993863;28;20429;-68
2024/01/29 07:58:47;;;;;;;10.10;7.30;;;4.40;99.90;;;;;;4991621;28;20535;-68
2024/01/29 08:01:12;;;;;;;15.63;8.53;;;4.40;99.90;;;;;;4998679;28;20193;-67
2024/01/29 08:03:38;;;;;;;13.67;7.87;;;4.40;99.90;;;;;;5000698;28;20690;-68
2024/01/29 08:06:04;;;;;;;10.27;6.93;;;4.40;99.90;;;;;;4986627;28;20192;-67
2024/01/29 08:08:30;;;;;;;10.87;7.70;;;4.40;99.90;;;;;;4997970;28;20450;-67
2024/01/29 08:11:00;;;;;;;11.07;7.90;;;4.40;99.90;;;;;;4990398;28;20260;-67
2024/01/29 08:13:27;;;;;;;13.50;8.10;;;4.40;99.90;;;;;;4994448;28;20477;-67
2024/01/29 08:15:53;;;;;;;10.97;8.47;;;4.50;99.90;;;;;;5000106;28;20439;-68
2024/01/29 08:18:18;;;;;;;11.07;7.30;;;4.50;99.90;;;;;;5004623;28;20420;-69
2024/01/29 08:20:44;;;;;;;9.13;7.27;;;4.50;99.90;;;;;;4999675;28;20632;-69
2024/01/29 08:23:11;;;;;;;11.90;7.30;;;4.60;99.90;;;;;;5001446;28;20204;-69
2024/01/29 08:25:36;;;;;;;11.53;7.27;;;4.60;99.90;;;;;;5002025;28;20215;-69
2024/01/29 08:28:02;;;;;;;15.63;8.30;;;4.60;99.90;;;;;;4997807;28;20483;-69
2024/01/29 08:30:27;;;;;;;11.43;7.57;;;4.70;99.90;;;;;;5001856;28;22244;-69
2024/01/29 08:32:53;;;;;;;10.93;8.27;;;4.80;99.90;;;;;;4999377;28;20263;-68
2024/01/29 08:35:18;;;;;;;13.13;7.57;;;4.90;99.90;;;;;;5000050;28;20228;-67
2024/01/29 08:37:44;;;;;;;10.03;6.80;;;5.00;99.90;;;;;;5000186;28;20190;-70
2024/01/29 08:40:10;;;;;;;10.27;7.80;;;5.00;99.90;;;;;;4999021;28;20204;-70
2024/01/29 08:42:36;;;;;;;11.07;7.50;;;5.10;99.90;;;;;;4996216;28;20225;-70
2024/01/29 08:45:02;;;;;;;15.83;9.00;;;5.20;99.90;;;;;;4997571;28;20774;-70
2024/01/29 08:47:28;;;;;;;12.00;8.77;;;5.20;99.90;;;;;;4998720;28;20381;-70
2024/01/29 08:49:53;;;;;;;11.73;7.83;;;5.30;99.90;;;;;;4998161;28;20538;-70
2024/01/29 08:52:19;;;;;;;11.93;9.03;;;5.40;99.90;;;;;;5001321;28;20209;-70
2024/01/29 08:54:44;;;;;;;14.50;9.07;;;5.40;99.90;;;;;;4998097;28;20204;-70
2024/01/29 08:57:10;;;;;;;17.00;8.97;;;5.40;99.90;;;;;;4994617;28;20209;-70
2024/01/29 08:59:37;;;;;;;11.70;8.43;;;5.40;99.90;;;;;;5000613;28;20173;-70
2024/01/29 09:02:03;;;;;;;14.30;9.53;;;5.50;99.90;;;;;;4981959;28;20197;-70
2024/01/29 09:04:28;;;;;;;12.70;9.37;;;5.60;99.90;;;;;;4999143;28;20466;-68
2024/01/29 09:06:54;;;;;;;12.73;9.23;;;5.60;99.90;;;;;;4993872;28;20613;-70
2024/01/29 09:09:19;;;;;;;14.57;9.87;;;5.70;99.90;;;;;;5012992;28;20219;-70
2024/01/29 09:11:45;;;;;;;14.37;9.47;;;5.70;99.90;;;;;;4997852;28;20591;-70
2024/01/29 09:14:11;;;;;;;13.90;9.90;;;5.80;99.90;;;;;;4998909;28;20197;-70
2024/01/29 09:16:36;;;;;;;10.03;8.63;;;5.80;99.90;;;;;;4997144;28;20697;-70
2024/01/29 09:19:02;;;;;;;19.97;9.33;;;5.90;99.90;;;;;;4997728;28;20201;-70
2024/01/29 09:21:31;;;;;;;13.40;8.47;;;5.90;99.90;;;;;;4997874;28;20178;-70
2024/01/29 09:23:56;;;;;;;12.30;8.67;;;6.00;99.90;;;;;;4996782;28;20211;-67
2024/01/29 09:26:22;;;;;;;11.20;8.53;;;6.00;99.90;;;;;;4993874;28;20416;-68
2024/01/29 09:28:47;;;;;;;10.70;7.97;;;6.10;99.90;;;;;;4995776;28;20311;-68
2024/01/29 09:31:13;;;;;;;14.50;10.07;;;6.20;99.90;;;;;;4993905;28;20266;-67
2024/01/29 09:33:39;;;;;;;13.37;9.80;;;6.20;99.90;;;;;;4998958;28;20205;-68
2024/01/29 09:36:05;;;;;;;12.43;9.30;;;6.30;99.90;;;;;;4999097;28;20279;-69
2024/01/29 09:38:30;;;;;;;14.53;9.43;;;6.40;99.90;;;;;;4997296;28;20548;-67
2024/01/29 09:40:58;;;;;;;13.33;10.93;;;6.50;99.90;;;;;;4998129;28;20408;-67
2024/01/29 09:43:25;;;;;;;14.93;10.33;;;6.60;99.90;;;;;;4999937;28;20212;-67
2024/01/29 09:45:52;;;;;;;13.90;11.03;;;6.60;99.90;;;;;;4997037;28;20429;-68
2024/01/29 09:48:19;;;;;;;15.53;11.67;;;6.70;99.90;;;;;;5001734;28;20439;-68
2024/01/29 09:50:45;;;;;;;12.70;10.87;;;6.80;99.90;;;;;;4996226;28;20444;-68
2024/01/29 09:53:19;;;;;;;18.90;13.20;;;6.80;99.90;;;;;;4994863;28;20457;-68
2024/01/29 09:55:45;;;;;;;15.27;12.00;;;6.80;99.90;;;;;;5000329;28;20949;-68
2024/01/29 09:58:10;;;;;;;14.20;11.37;;;6.90;99.90;;;;;;4996911;28;20418;-69
2024/01/29 10:00:36;;;;;;;14.50;12.23;;;6.90;99.90;;;;;;5000611;28;20690;-67
2024/01/29 10:03:07;;;;;;;18.07;12.40;;;7.00;99.90;;;;;;4994887;28;20196;-68
2024/01/29 10:05:33;;;;;;;16.80;14.00;;;7.00;99.90;;;;;;4991544;28;20226;-67
2024/01/29 10:07:59;;;;;;;14.17;11.23;;;7.00;99.90;;;;;;4991463;28;20546;-69
2024/01/29 10:10:25;;;;;;;17.60;12.63;;;6.90;99.90;;;;;;4997355;28;20203;-68
2024/01/29 10:13:01;;;;;;;14.70;11.70;;;7.10;99.90;;;;;;4995221;28;20464;-68
2024/01/29 10:15:28;;;;;;;19.93;12.13;;;7.10;99.90;;;;;;4998702;28;21019;-68
2024/01/29 10:17:54;;;;;;;23.77;13.97;;;7.20;99.90;;;;;;5001388;28;20774;-68
2024/01/29 10:20:20;;;;;;;17.57;12.40;;;7.20;99.90;;;;;;4997151;28;20428;-69
2024/01/29 10:22:46;;;;;;;15.50;11.70;;;7.20;99.90;;;;;;4994207;28;20189;-67
2024/01/29 10:25:15;;;;;;;12.47;11.10;;;7.10;99.90;;;;;;4998042;28;20450;-67
2024/01/29 10:27:40;;;;;;;14.27;10.50;;;7.00;99.90;;;;;;4998896;28;20238;-68
2024/01/29 10:30:10;;;;;;;23.20;13.10;;;7.10;99.90;;;;;;4997910;28;20443;-67
2024/01/29 10:32:35;;;;;;;16.90;12.07;;;7.20;99.90;;;;;;4996627;28;20343;-68
2024/01/29 10:35:01;;;;;;;17.70;12.47;;;7.10;99.90;;;;;;4993874;28;20504;-68
2024/01/29 10:37:27;;;;;;;19.27;12.20;;;7.10;99.90;;;;;;4999099;28;20675;-68
2024/01/29 10:39:54;;;;;;;14.03;11.47;;;7.20;99.90;;;;;;5000558;28;20216;-67
2024/01/29 10:42:20;;;;;;;22.93;12.27;;;7.20;99.90;;;;;;4994553;28;20736;-67
2024/01/29 10:44:46;;;;;;;18.97;13.20;;;7.20;99.90;;;;;;4995922;28;20443;-67
2024/01/29 10:47:25;;;;;;;20.60;12.73;;;7.30;99.90;;;;;;4997593;28;20451;-67
2024/01/29 10:49:53;;;;;;;18.20;12.07;;;7.40;99.90;;;;;;4995647;28;20421;-67
2024/01/29 10:52:21;;;;;;;18.37;12.47;;;7.50;99.90;;;;;;4993973;28;20477;-66
2024/01/29 10:54:47;;;;;;;15.53;12.70;;;7.50;99.90;;;;;;5000651;28;20529;-66
2024/01/29 10:57:15;;;;;;;15.07;11.37;;;7.60;99.90;;;;;;4994687;28;20507;-67
2024/01/29 10:59:42;;;;;;;16.47;12.13;;;7.60;99.90;;;;;;4993821;28;20444;-67
2024/01/29 11:02:12;;;;;;;17.10;12.03;;;7.70;99.90;;;;;;4987214;28;20954;-66
2024/01/29 11:04:38;;;;;;;13.30;11.00;;;7.70;99.90;;;;;;4988428;28;20455;-66
2024/01/29 11:07:18;;;;;;;12.87;10.53;;;7.70;99.90;;;;;;4992021;28;20819;-66
2024/01/29 11:10:21;;;;;;;14.60;11.10;;;7.80;99.90;;;;;;4991765;28;20279;-66
2024/01/29 11:12:50;;;;;;;16.83;11.20;;;7.90;99.90;;;;;;4983204;28;20486;-67
2024/01/29 11:15:16;;;;;;;18.23;11.03;;;7.90;99.90;;;;;;4992797;28;20444;-67
2024/01/29 11:17:58;;;;;;;16.77;12.10;;;8.00;99.90;;;;;;5031718;27;21552;-68
2024/01/29 11:20:24;;;;;;;15.60;12.70;;;8.00;99.90;;;;;;5031130;28;20438;-69
2024/01/29 11:22:57;;;;;;;14.10;12.00;;;8.20;99.90;;;;;;5029223;28;20427;-69
2024/01/29 11:25:25;;;;;;;15.37;11.00;;;8.30;99.90;;;;;;5028434;28;20204;-69
2024/01/29 11:27:51;;;;;;;14.67;12.17;;;8.30;99.90;;;;;;5028771;28;20442;-68
2024/01/29 11:30:21;;;;;;;15.83;12.43;;;8.30;99.90;;;;;;5027226;28;20453;-69
2024/01/29 11:32:51;;;;;;;15.93;11.40;;;8.40;99.90;;;;;;5027945;28;20473;-69
2024/01/29 11:35:18;;;;;;;17.80;11.67;;;8.50;99.90;;;;;;5027743;28;20489;-68
2024/01/29 11:37:44;;;;;;;15.13;12.03;;;8.60;99.90;;;;;;5027920;28;20481;-68
2024/01/29 11:40:34;;;;;;;14.90;11.53;;;8.60;99.90;;;;;;5024573;28;20480;-68
2024/01/29 11:43:09;;;;;;;14.73;10.40;;;8.70;99.90;;;;;;5032137;28;20421;-68
2024/01/29 11:45:38;;;;;;;13.60;11.13;;;8.80;99.90;;;;;;5025047;28;20449;-67
2024/01/29 11:48:11;;;;;;;14.60;11.73;;;8.80;99.90;;;;;;5028452;28;20423;-68
2024/01/29 11:50:38;;;;;;;12.93;11.00;;;8.90;99.90;;;;;;5029609;28;21236;-69
2024/01/29 11:53:05;;;;;;;15.90;11.10;;;9.00;99.90;;;;;;5022585;28;20464;-68
2024/01/29 11:55:31;;;;;;;11.63;10.43;;;9.10;99.90;;;;;;5026941;28;20431;-68
2024/01/29 11:57:57;;;;;;;14.10;10.80;;;9.20;99.90;;;;;;5023888;28;20540;-68
2024/01/29 12:00:23;;;;;;;12.73;11.43;;;9.40;99.90;;;;;;5025270;28;20443;-67
2024/01/29 12:02:50;;;;;;;14.07;11.00;;;9.50;99.90;;;;;;5026038;28;20199;-67
2024/01/29 12:05:17;;;;;;;15.53;11.53;;;9.60;99.90;;;;;;5027255;28;20458;-68
2024/01/29 12:07:45;;;;;;;14.13;10.73;;;9.80;99.90;;;;;;5024467;28;21264;-68
2024/01/29 12:10:10;;;;;;;13.20;11.30;;;9.90;99.90;;;;;;5022528;28;20433;-68
2024/01/29 12:12:36;;;;;;;13.10;9.53;;;10.10;99.90;;;;;;5026313;28;20422;-68
2024/01/29 12:15:02;;;;;;;15.90;10.83;;;10.30;99.90;;;;;;5025613;28;20241;-68
2024/01/29 12:17:28;;;;;;;25.43;11.90;;;10.40;99.90;;;;;;5025226;28;20765;-67
2024/01/29 12:19:54;;;;;;;22.53;10.50;;;10.70;99.90;;;;;;5024772;28;21151;-67
2024/01/29 12:22:19;;;;;;;13.40;10.37;;;10.80;99.90;;;;;;5022312;28;20427;-67
2024/01/29 12:24:46;;;;;;;13.47;10.47;;;11.00;99.90;;;;;;5027894;28;20208;-67
2024/01/29 12:27:13;;;;;;;13.90;9.63;;;11.40;99.90;;;;;;5026058;28;20192;-67
2024/01/29 12:29:39;;;;;;;10.90;9.40;;;12.80;99.90;;;;;;5012045;28;20526;-67
2024/01/29 12:32:11;;;;;;;12.93;9.90;;;14.90;99.90;;;;;;5012024;28;20450;-67
2024/01/29 12:34:47;;;;;;;15.93;9.70;;;16.90;99.90;;;;;;5012049;28;20453;-67
2024/01/29 12:37:23;;;;;;;9.30;8.30;;;18.80;99.90;;;;;;5011077;28;20556;-67
2024/01/29 12:39:53;;;;;;;10.37;8.03;;;20.40;99.90;;;;;;5014687;28;20427;-66